createdAt,value
2018-07-19T00:00:04.952Z,0
2018-07-19T00:01:17.463Z,0
2018-07-19T00:02:28.595Z,0
2018-07-19T00:03:39.327Z,0
2018-07-19T00:04:49.464Z,0
2018-07-19T00:05:59.383Z,0
2018-07-19T00:07:09.490Z,0
2018-07-19T00:08:20.189Z,0
2018-07-19T00:09:31.178Z,0
2018-07-19T00:10:41.964Z,0
2018-07-19T00:11:51.836Z,0
2018-07-19T00:13:01.965Z,0
2018-07-19T00:14:13.110Z,0
2018-07-19T00:15:24.765Z,0
2018-07-19T00:16:36.532Z,0
2018-07-19T00:17:47.285Z,0
2018-07-19T00:18:57.641Z,0
2018-07-19T00:20:07.576Z,0
2018-07-19T00:21:17.722Z,0
2018-07-19T00:22:28.375Z,0
2018-07-19T00:23:40.255Z,0
2018-07-19T00:24:51.347Z,0
2018-07-19T00:26:02.006Z,0
2018-07-19T00:27:11.892Z,0
2018-07-19T00:28:22.011Z,0
2018-07-19T00:29:31.591Z,0
2018-07-19T00:30:42.229Z,0
2018-07-19T00:31:54.227Z,0
2018-07-19T00:33:06.223Z,0
2018-07-19T00:41:15.407Z,0
2018-07-19T00:42:26.287Z,0
2018-07-19T00:43:36.424Z,0
2018-07-19T00:44:46.550Z,0
2018-07-19T00:45:56.708Z,0
2018-07-19T00:47:08.537Z,0
2018-07-19T00:48:20.873Z,0
2018-07-19T00:49:31.517Z,0
2018-07-19T00:50:42.186Z,0
2018-07-19T00:51:52.325Z,0
2018-07-19T00:53:02.178Z,0
2018-07-19T00:54:12.043Z,0
2018-07-19T00:55:22.196Z,0
2018-07-19T00:56:32.788Z,0
2018-07-19T00:57:45.076Z,0
2018-07-19T00:58:55.572Z,0
2018-07-19T01:00:05.448Z,0
2018-07-19T01:01:15.580Z,0
2018-07-19T01:02:25.694Z,0
2018-07-19T01:03:35.543Z,0
2018-07-19T01:04:46.719Z,0
2018-07-19T01:05:58.751Z,0
2018-07-19T01:07:09.814Z,0
2018-07-19T01:08:20.269Z,0
2018-07-19T01:09:30.444Z,0
2018-07-19T01:10:40.642Z,0
2018-07-19T01:11:50.288Z,0
2018-07-19T01:13:02.649Z,0
2018-07-19T01:14:13.582Z,0
2018-07-19T01:15:23.445Z,0
2018-07-19T01:16:33.572Z,0
2018-07-19T01:17:43.692Z,0
2018-07-19T01:18:54.275Z,0
2018-07-19T01:20:06.650Z,0
2018-07-19T01:21:17.135Z,0
2018-07-19T01:22:27.315Z,0
2018-07-19T01:23:37.185Z,0
2018-07-19T01:24:48.841Z,0
2018-07-19T01:26:00.746Z,0
2018-07-19T01:27:11.158Z,0
2018-07-19T01:28:21.020Z,0
2018-07-19T01:29:31.175Z,0
2018-07-19T01:30:41.284Z,0
2018-07-19T01:31:51.439Z,0
2018-07-19T01:33:02.587Z,0
2018-07-19T01:34:14.214Z,0
2018-07-19T01:35:25.801Z,0
2018-07-19T01:36:36.259Z,0
2018-07-19T01:37:46.425Z,0
2018-07-19T01:38:56.564Z,0
2018-07-19T01:40:06.676Z,0
2018-07-19T01:41:16.801Z,0
2018-07-19T01:42:28.296Z,0
2018-07-19T01:43:40.268Z,0
2018-07-19T01:44:50.589Z,0
2018-07-19T01:46:00.464Z,0
2018-07-19T01:47:10.601Z,0
2018-07-19T01:48:21.908Z,0
2018-07-19T01:49:32.919Z,0
2018-07-19T01:50:43.149Z,0
2018-07-19T01:51:53.323Z,0
2018-07-19T01:53:03.454Z,0
2018-07-19T01:54:15.177Z,0
2018-07-19T01:55:27.537Z,0
2018-07-19T01:56:38.106Z,0
2018-07-19T01:57:48.290Z,0
2018-07-19T01:58:58.248Z,0
2018-07-19T02:00:10.696Z,0
2018-07-19T02:01:21.726Z,0
2018-07-19T02:02:32.538Z,0
2018-07-19T02:03:42.715Z,0
2018-07-19T02:04:52.849Z,0
2018-07-19T02:06:03.015Z,0
2018-07-19T02:07:14.442Z,0
2018-07-19T02:08:24.842Z,0
2018-07-19T02:09:35.472Z,0
2018-07-19T02:10:45.326Z,0
2018-07-19T02:11:55.456Z,0
2018-07-19T02:13:07.685Z,0
2018-07-19T02:14:19.059Z,0
2018-07-19T02:15:29.584Z,0
2018-07-19T02:16:39.697Z,0
2018-07-19T02:17:49.845Z,0
2018-07-19T02:19:00.303Z,0
2018-07-19T02:20:12.045Z,0
2018-07-19T02:21:22.748Z,0
2018-07-19T02:22:32.853Z,0
2018-07-19T02:23:42.460Z,0
2018-07-19T02:24:53.526Z,0
2018-07-19T02:26:05.079Z,0
2018-07-19T02:27:15.967Z,0
2018-07-19T02:28:25.836Z,0
2018-07-19T02:29:35.999Z,0
2018-07-19T02:30:46.770Z,0
2018-07-19T02:31:57.194Z,0
2018-07-19T02:33:08.166Z,0
2018-07-19T02:34:18.268Z,0
2018-07-19T02:35:28.439Z,0
2018-07-19T02:36:39.200Z,0
2018-07-19T02:37:51.101Z,0
2018-07-19T02:39:01.475Z,0
2018-07-19T02:40:11.624Z,0
2018-07-19T02:41:21.759Z,0
2018-07-19T02:42:32.293Z,0
2018-07-19T02:43:44.267Z,0
2018-07-19T02:44:55.801Z,0
2018-07-19T02:46:06.206Z,0
2018-07-19T02:47:16.350Z,0
2018-07-19T02:48:26.488Z,0
2018-07-19T02:49:38.475Z,0
2018-07-19T02:50:49.606Z,0
2018-07-19T02:52:00.343Z,0
2018-07-19T02:53:10.217Z,0
2018-07-19T02:54:20.296Z,0
2018-07-19T02:55:31.528Z,0
2018-07-19T02:56:42.168Z,0
2018-07-19T02:57:52.855Z,0
2018-07-19T02:59:02.448Z,0
2018-07-19T03:00:12.574Z,0
2018-07-19T03:01:22.719Z,0
2018-07-19T03:02:33.040Z,0
2018-07-19T03:34:57.985Z,15
2018-07-19T03:36:07.858Z,15
2018-07-19T03:37:18.976Z,20
2018-07-19T03:38:30.986Z,20
2018-07-19T03:39:41.420Z,20
2018-07-19T03:40:51.549Z,25
2018-07-19T03:42:01.410Z,25
2018-07-19T03:43:11.567Z,30
2018-07-19T03:44:24.062Z,30
2018-07-19T03:45:34.928Z,30
2018-07-19T03:46:45.084Z,30
2018-07-19T03:47:55.205Z,30
2018-07-19T03:49:06.481Z,35
2018-07-19T03:50:18.332Z,35
2018-07-19T03:51:29.081Z,35
2018-07-19T03:52:39.451Z,35
2018-07-19T03:53:49.593Z,40
2018-07-19T03:55:00.225Z,40
2018-07-19T03:56:12.521Z,40
2018-07-19T03:57:23.286Z,40
2018-07-19T03:58:33.577Z,40
2018-07-19T03:59:43.692Z,40
2018-07-19T04:00:53.823Z,40
2018-07-19T04:02:06.397Z,35
2018-07-19T04:03:18.247Z,35
2018-07-19T04:04:28.623Z,35
2018-07-19T04:05:38.757Z,30
2018-07-19T04:06:48.952Z,30
2018-07-19T04:08:00.756Z,30
2018-07-19T04:09:13.071Z,30
2018-07-19T04:10:23.738Z,30
2018-07-19T04:11:33.604Z,35
2018-07-19T04:12:43.190Z,35
2018-07-19T04:13:53.362Z,35
2018-07-19T04:15:04.032Z,35
2018-07-19T04:16:16.209Z,40
2018-07-19T04:17:27.193Z,40
2018-07-19T04:18:37.653Z,40
2018-07-19T04:19:47.758Z,45
2018-07-19T04:20:57.918Z,40
2018-07-19T04:22:08.724Z,45
2018-07-19T04:23:20.831Z,45
2018-07-19T04:24:32.723Z,50
2018-07-19T04:25:43.355Z,50
2018-07-19T04:26:53.493Z,55
2018-07-19T04:28:03.640Z,55
2018-07-19T04:29:13.766Z,55
2018-07-19T04:30:25.877Z,60
2018-07-19T04:31:37.992Z,60
2018-07-19T04:32:48.338Z,60
2018-07-19T04:33:58.491Z,65
2018-07-19T04:35:08.092Z,65
2018-07-19T04:36:18.205Z,65
2018-07-19T04:37:29.108Z,70
2018-07-19T04:38:41.575Z,70
2018-07-19T04:39:51.438Z,70
2018-07-19T04:41:01.766Z,75
2018-07-19T04:42:11.952Z,75
2018-07-19T04:43:22.091Z,80
2018-07-19T04:44:32.791Z,85
2018-07-19T04:45:44.362Z,90
2018-07-19T04:46:54.811Z,95
2018-07-19T04:48:04.943Z,105
2018-07-19T04:49:14.805Z,105
2018-07-19T04:50:24.663Z,105
2018-07-19T04:51:36.889Z,115
2018-07-19T04:52:48.673Z,155
2018-07-19T04:53:59.086Z,210
2018-07-19T04:55:09.249Z,245
2018-07-19T04:56:19.380Z,225
2018-07-19T04:57:29.555Z,300
2018-07-19T04:58:41.691Z,330
2018-07-19T04:59:53.315Z,390
2018-07-19T05:01:03.273Z,590
2018-07-19T05:02:13.890Z,355
2018-07-19T05:03:24.063Z,240
2018-07-19T05:04:33.931Z,250
2018-07-19T05:05:46.454Z,255
2018-07-19T05:06:58.281Z,270
2018-07-19T05:08:08.773Z,355
2018-07-19T05:09:18.644Z,450
2018-07-19T05:10:28.805Z,340
2018-07-19T05:11:38.967Z,345
2018-07-19T05:12:50.580Z,330
2018-07-19T05:14:02.686Z,240
2018-07-19T05:15:13.234Z,230
2018-07-19T05:16:23.333Z,255
2018-07-19T05:17:33.467Z,260
2018-07-19T05:18:43.645Z,275
2018-07-19T05:19:53.543Z,305
2018-07-19T05:21:05.747Z,285
2018-07-19T05:22:17.381Z,360
2018-07-19T05:23:28.259Z,470
2018-07-19T05:24:38.423Z,360
2018-07-19T05:25:48.589Z,330
2018-07-19T05:26:58.761Z,470
2018-07-19T05:28:09.527Z,465
2018-07-19T05:29:21.029Z,520
2018-07-19T05:30:31.602Z,480
2018-07-19T05:31:41.844Z,365
2018-07-19T05:32:51.744Z,315
2018-07-19T05:34:01.876Z,340
2018-07-19T05:35:14.043Z,245
2018-07-19T05:36:25.355Z,250
2018-07-19T05:37:35.927Z,250
2018-07-19T05:38:46.097Z,205
2018-07-19T05:39:56.266Z,200
2018-07-19T05:41:06.442Z,205
2018-07-19T05:42:17.300Z,205
2018-07-19T05:43:29.427Z,210
2018-07-19T05:44:40.497Z,205
2018-07-19T05:45:51.164Z,210
2018-07-19T05:47:01.300Z,215
2018-07-19T05:48:11.458Z,215
2018-07-19T05:49:21.594Z,210
2018-07-19T05:50:31.767Z,215
2018-07-19T05:51:43.717Z,220
2018-07-19T05:52:56.242Z,225
2018-07-19T05:54:06.662Z,230
2018-07-19T05:55:16.825Z,230
2018-07-19T05:56:26.955Z,235
2018-07-19T05:57:37.792Z,235
2018-07-19T05:58:50.012Z,240
2018-07-19T06:00:01.267Z,250
2018-07-19T06:01:12.140Z,260
2018-07-19T06:02:22.279Z,250
2018-07-19T06:03:32.416Z,240
2018-07-19T06:04:44.211Z,245
2018-07-19T06:05:54.723Z,240
2018-07-19T06:07:05.012Z,240
2018-07-19T06:08:15.162Z,240
2018-07-19T06:09:25.305Z,240
2018-07-19T06:10:37.079Z,235
2018-07-19T06:11:49.382Z,235
2018-07-19T06:13:00.687Z,245
2018-07-19T06:14:10.816Z,250
2018-07-19T06:15:20.683Z,250
2018-07-19T06:16:30.784Z,245
2018-07-19T06:17:40.670Z,255
2018-07-19T06:18:51.131Z,260
2018-07-19T06:20:01.303Z,235
2018-07-19T06:21:12.896Z,240
2018-07-19T06:22:22.840Z,255
2018-07-19T06:23:32.503Z,240
2018-07-19T06:24:42.718Z,240
2018-07-19T06:25:53.990Z,235
2018-07-19T06:27:04.599Z,235
2018-07-19T06:28:14.801Z,235
2018-07-19T06:29:25.010Z,240
2018-07-19T06:30:35.700Z,235
2018-07-19T06:31:47.272Z,240
2018-07-19T06:32:58.515Z,245
2018-07-19T06:34:08.397Z,250
2018-07-19T06:35:18.553Z,255
2018-07-19T06:36:30.988Z,260
2018-07-19T06:37:41.811Z,260
2018-07-19T06:38:51.994Z,265
2018-07-19T06:40:01.998Z,280
2018-07-19T06:41:12.942Z,270
2018-07-19T06:42:24.718Z,270
2018-07-19T06:43:35.381Z,265
2018-07-19T06:44:45.634Z,265
2018-07-19T06:45:55.776Z,270
2018-07-19T06:47:06.335Z,280
2018-07-19T06:48:18.049Z,275
2018-07-19T06:49:29.204Z,270
2018-07-19T06:50:39.343Z,270
2018-07-19T06:51:49.495Z,270
2018-07-19T06:53:00.304Z,270
2018-07-19T06:54:12.115Z,275
2018-07-19T06:55:22.752Z,270
2018-07-19T06:56:32.090Z,270
2018-07-19T06:57:42.738Z,275
2018-07-19T06:58:52.868Z,275
2018-07-19T07:00:05.022Z,280
2018-07-19T07:01:16.067Z,280
2018-07-19T07:02:26.916Z,275
2018-07-19T07:03:36.604Z,280
2018-07-19T07:04:46.872Z,280
2018-07-19T07:05:58.728Z,285
2018-07-19T07:07:11.077Z,290
2018-07-19T07:08:21.455Z,285
2018-07-19T07:09:31.591Z,285
2018-07-19T07:10:41.725Z,280
2018-07-19T07:11:51.712Z,275
2018-07-19T07:13:04.217Z,280
2018-07-19T07:14:14.872Z,270
2018-07-19T07:15:25.010Z,270
2018-07-19T07:16:34.928Z,270
2018-07-19T07:17:45.866Z,265
2018-07-19T07:18:57.610Z,265
2018-07-19T07:20:08.231Z,265
2018-07-19T07:21:18.769Z,265
2018-07-19T07:22:28.686Z,260
2018-07-19T07:23:40.074Z,260
2018-07-19T07:24:52.091Z,250
2018-07-19T07:26:02.617Z,250
2018-07-19T07:27:12.501Z,245
2018-07-19T07:28:22.714Z,260
2018-07-19T07:29:33.158Z,245
2018-07-19T07:30:44.362Z,245
2018-07-19T07:31:55.167Z,240
2018-07-19T07:33:05.773Z,240
2018-07-19T07:34:16.359Z,240
2018-07-19T07:35:26.578Z,230
2018-07-19T07:36:37.672Z,225
2018-07-19T07:37:48.611Z,230
2018-07-19T07:38:58.866Z,225
2018-07-19T07:40:08.794Z,220
2018-07-19T07:41:21.450Z,225
2018-07-19T07:42:31.732Z,225
2018-07-19T07:43:41.988Z,235
2018-07-19T07:44:52.168Z,225
2018-07-19T07:46:02.334Z,225
2018-07-19T07:47:14.741Z,225
2018-07-19T07:48:26.670Z,220
2018-07-19T07:49:37.184Z,215
2018-07-19T07:50:47.373Z,215
2018-07-19T07:51:57.006Z,210
2018-07-19T07:53:08.002Z,215
2018-07-19T07:54:20.349Z,220
2018-07-19T07:55:31.110Z,210
2018-07-19T07:56:41.040Z,220
2018-07-19T07:57:51.149Z,220
2018-07-19T07:59:01.260Z,240
2018-07-19T08:00:11.828Z,230
2018-07-19T08:01:23.301Z,240
2018-07-19T08:02:35.186Z,225
2018-07-19T08:03:45.923Z,250
2018-07-19T08:04:56.270Z,225
2018-07-19T08:06:06.145Z,240
2018-07-19T08:07:17.982Z,230
2018-07-19T08:08:30.268Z,240
2018-07-19T08:09:40.647Z,225
2018-07-19T08:10:50.764Z,225
2018-07-19T08:12:00.640Z,220
2018-07-19T08:13:11.274Z,230
2018-07-19T08:14:22.133Z,225
2018-07-19T08:15:32.253Z,235
2018-07-19T08:16:42.387Z,220
2018-07-19T08:17:54.839Z,210
2018-07-19T08:19:06.280Z,230
2018-07-19T08:20:16.898Z,210
2018-07-19T08:21:27.055Z,215
2018-07-19T08:22:37.238Z,195
2018-07-19T08:23:48.183Z,200
2018-07-19T08:24:59.537Z,200
2018-07-19T08:26:09.861Z,220
2018-07-19T08:27:19.974Z,200
2018-07-19T08:28:30.134Z,205
2018-07-19T08:29:40.420Z,215
2018-07-19T08:30:51.956Z,195
2018-07-19T08:32:03.062Z,210
2018-07-19T08:33:13.819Z,215
2018-07-19T08:34:23.950Z,215
2018-07-19T08:35:33.862Z,220
2018-07-19T08:36:46.194Z,240
2018-07-19T08:37:57.309Z,230
2018-07-19T08:39:07.167Z,235
2018-07-19T08:40:17.115Z,215
2018-07-19T08:41:27.262Z,205
2018-07-19T08:42:39.342Z,245
2018-07-19T08:43:50.843Z,255
2018-07-19T08:45:01.624Z,300
2018-07-19T08:46:11.838Z,280
2018-07-19T08:47:21.700Z,285
2018-07-19T08:48:33.713Z,260
2018-07-19T08:49:44.026Z,230
2018-07-19T08:50:54.663Z,225
2018-07-19T08:52:04.900Z,225
2018-07-19T08:53:14.768Z,230
2018-07-19T08:54:26.309Z,230
2018-07-19T08:55:37.885Z,220
2018-07-19T08:56:48.929Z,235
2018-07-19T08:57:59.164Z,280
2018-07-19T08:59:09.317Z,260
2018-07-19T09:00:21.519Z,235
2018-07-19T09:01:33.006Z,215
2018-07-19T09:02:43.405Z,215
2018-07-19T09:03:53.553Z,210
2018-07-19T09:05:03.709Z,210
2018-07-19T09:06:15.548Z,210
2018-07-19T09:07:27.973Z,220
2018-07-19T09:08:38.682Z,215
2018-07-19T09:09:48.837Z,270
2018-07-19T09:10:58.761Z,285
2018-07-19T09:12:08.608Z,290
2018-07-19T09:13:19.353Z,240
2018-07-19T09:14:31.761Z,265
2018-07-19T09:15:43.118Z,250
2018-07-19T09:16:53.654Z,180
2018-07-19T09:18:03.789Z,185
2018-07-19T09:19:13.932Z,180
2018-07-19T09:20:24.102Z,255
2018-07-19T09:21:36.108Z,255
2018-07-19T09:22:47.482Z,265
2018-07-19T09:23:58.453Z,265
2018-07-19T09:25:08.585Z,265
2018-07-19T09:26:18.717Z,245
2018-07-19T09:27:28.841Z,180
2018-07-19T09:28:40.149Z,245
2018-07-19T09:29:52.301Z,255
2018-07-19T09:31:02.164Z,260
2018-07-19T09:32:12.085Z,270
2018-07-19T09:33:22.238Z,275
2018-07-19T09:34:32.399Z,270
2018-07-19T09:35:44.085Z,255
2018-07-19T09:36:56.383Z,185
2018-07-19T09:38:06.545Z,185
2018-07-19T09:39:16.793Z,190
2018-07-19T09:40:26.906Z,255
2018-07-19T09:41:36.490Z,260
2018-07-19T09:42:47.805Z,270
2018-07-19T09:44:00.108Z,210
2018-07-19T09:45:10.920Z,275
2018-07-19T09:46:21.616Z,225
2018-07-19T09:47:31.486Z,280
2018-07-19T09:48:41.605Z,235
2018-07-19T09:49:53.761Z,245
2018-07-19T09:51:05.839Z,245
2018-07-19T09:52:16.285Z,240
2018-07-19T09:53:26.161Z,235
2018-07-19T09:54:36.763Z,265
2018-07-19T09:55:46.644Z,205
2018-07-19T09:56:58.181Z,195
2018-07-19T09:58:10.533Z,210
2018-07-19T09:59:21.072Z,260
2018-07-19T10:00:31.270Z,275
2018-07-19T10:01:41.441Z,305
2018-07-19T10:02:51.721Z,300
2018-07-19T10:04:03.624Z,270
2018-07-19T10:05:15.224Z,240
2018-07-19T10:06:25.801Z,275
2018-07-19T10:07:35.928Z,245
2018-07-19T10:08:46.067Z,255
2018-07-19T10:09:56.366Z,285
2018-07-19T10:11:06.964Z,265
2018-07-19T10:12:19.350Z,295
2018-07-19T10:13:31.502Z,295
2018-07-19T10:14:41.892Z,255
2018-07-19T10:15:51.770Z,315
2018-07-19T10:17:01.893Z,240
2018-07-19T10:18:12.072Z,235
2018-07-19T10:19:22.754Z,280
2018-07-19T10:20:34.937Z,280
2018-07-19T10:21:46.434Z,290
2018-07-19T10:22:57.256Z,300
2018-07-19T10:24:07.411Z,310
2018-07-19T10:25:17.567Z,320
2018-07-19T10:26:27.720Z,260
2018-07-19T10:27:38.542Z,305
2018-07-19T10:28:50.104Z,240
2018-07-19T10:30:01.911Z,235
2018-07-19T10:31:12.347Z,235
2018-07-19T10:32:23.707Z,290
2018-07-19T10:33:33.928Z,295
2018-07-19T10:34:44.099Z,275
2018-07-19T10:35:54.451Z,250
2018-07-19T10:37:05.995Z,230
2018-07-19T10:38:17.171Z,265
2018-07-19T10:39:27.922Z,235
2018-07-19T10:40:38.073Z,205
2018-07-19T10:41:48.248Z,280
2018-07-19T10:42:58.480Z,285
2018-07-19T10:44:08.707Z,305
2018-07-19T10:45:20.059Z,325
2018-07-19T10:46:32.151Z,315
2018-07-19T10:47:43.454Z,315
2018-07-19T10:48:54.009Z,330
2018-07-19T10:50:04.170Z,325
2018-07-19T10:51:14.269Z,280
2018-07-19T10:52:24.102Z,280
2018-07-19T10:53:33.941Z,250
2018-07-19T10:54:44.027Z,250
2018-07-19T10:55:54.116Z,250
2018-07-19T10:57:04.436Z,285
2018-07-19T10:58:14.536Z,230
2018-07-19T10:59:24.584Z,245
2018-07-19T11:00:34.586Z,270
2018-07-19T11:01:44.667Z,270
2018-07-19T11:02:55.355Z,270
2018-07-19T11:04:05.521Z,270
2018-07-19T11:05:15.614Z,265
2018-07-19T11:06:25.711Z,265
2018-07-19T11:07:35.547Z,270
2018-07-19T11:08:45.380Z,275
2018-07-19T11:09:55.942Z,280
2018-07-19T11:11:06.334Z,285
2018-07-19T11:12:16.427Z,290
2018-07-19T11:13:26.555Z,285
2018-07-19T11:14:36.491Z,290
2018-07-19T11:15:46.599Z,305
2018-07-19T11:16:56.698Z,315
2018-07-19T11:18:06.789Z,285
2018-07-19T11:19:16.882Z,250
2018-07-19T11:20:27.002Z,210
2018-07-19T11:21:37.086Z,270
2018-07-19T11:22:47.638Z,255
2018-07-19T11:23:57.788Z,265
2018-07-19T11:25:07.917Z,270
2018-07-19T11:26:17.478Z,285
2018-07-19T11:27:27.613Z,290
2018-07-19T11:28:37.885Z,305
2018-07-19T11:29:47.957Z,300
2018-07-19T11:30:58.065Z,300
2018-07-19T11:32:08.205Z,295
2018-07-19T11:33:18.045Z,295
2018-07-19T11:34:27.883Z,295
2018-07-19T11:35:37.972Z,290
2018-07-19T11:36:48.081Z,290
2018-07-19T11:37:57.971Z,285
2018-07-19T11:39:08.078Z,290
2018-07-19T11:40:17.930Z,285
2018-07-19T11:41:28.037Z,280
2018-07-19T11:42:37.899Z,275
2018-07-19T11:43:48.062Z,295
2018-07-19T11:44:57.915Z,300
2018-07-19T11:46:08.016Z,310
2018-07-19T11:47:18.117Z,300
2018-07-19T11:48:28.196Z,300
2018-07-19T11:49:38.308Z,290
2018-07-19T11:50:48.401Z,290
2018-07-19T11:51:57.957Z,270
2018-07-19T11:53:08.049Z,265
2018-07-19T11:54:18.146Z,225
2018-07-19T11:55:28.286Z,255
2018-07-19T11:56:38.408Z,260
2018-07-19T11:57:48.234Z,200
2018-07-19T11:58:58.360Z,260
2018-07-19T12:00:08.490Z,265
2018-07-19T12:01:18.407Z,265
2018-07-19T12:02:28.253Z,270
2018-07-19T12:03:38.348Z,285
2018-07-19T12:04:48.522Z,300
2018-07-19T12:05:58.752Z,315
2018-07-19T12:07:08.842Z,335
2018-07-19T12:08:18.952Z,335
2018-07-19T12:09:29.058Z,330
2018-07-19T12:10:39.161Z,325
2018-07-19T12:11:49.040Z,265
2018-07-19T12:12:59.153Z,220
2018-07-19T12:14:09.261Z,205
2018-07-19T12:15:19.100Z,200
2018-07-19T12:16:28.921Z,205
2018-07-19T12:17:39.018Z,290
2018-07-19T12:18:49.102Z,285
2018-07-19T12:19:58.662Z,185
2018-07-19T12:21:08.774Z,215
2018-07-19T12:22:18.610Z,190
2018-07-19T12:23:28.181Z,275
2018-07-19T12:24:38.319Z,280
2018-07-19T12:25:48.414Z,275
2018-07-19T12:26:58.536Z,285
2018-07-19T12:28:08.680Z,295
2018-07-19T12:29:18.486Z,300
2018-07-19T12:30:28.576Z,310
2018-07-19T12:31:38.689Z,310
2018-07-19T12:32:48.772Z,315
2018-07-19T12:33:58.615Z,315
2018-07-19T12:35:08.730Z,310
2018-07-19T12:36:18.551Z,205
2018-07-19T12:37:28.658Z,290
2018-07-19T12:38:38.995Z,285
2018-07-19T12:39:48.826Z,190
2018-07-19T12:40:58.853Z,200
2018-07-19T12:42:09.017Z,285
2018-07-19T12:43:19.132Z,290
2018-07-19T12:44:28.975Z,295
2018-07-19T12:45:39.076Z,305
2018-07-19T12:46:49.159Z,300
2018-07-19T12:47:59.006Z,295
2018-07-19T12:49:09.272Z,300
2018-07-19T12:50:19.371Z,305
2018-07-19T12:51:29.468Z,300
2018-07-19T12:52:39.288Z,260
2018-07-19T12:53:49.135Z,270
2018-07-19T12:54:59.293Z,255
2018-07-19T12:56:09.132Z,245
2018-07-19T12:57:19.268Z,250
2018-07-19T12:58:29.375Z,260
2018-07-19T12:59:39.472Z,265
2018-07-19T13:00:49.499Z,280
2018-07-19T13:01:59.600Z,285
2018-07-19T13:03:09.714Z,295
2018-07-19T13:04:19.805Z,300
2018-07-19T13:05:30.100Z,285
2018-07-19T13:06:39.936Z,200
2018-07-19T13:07:50.010Z,185
2018-07-19T13:08:59.821Z,270
2018-07-19T13:10:10.012Z,265
2018-07-19T13:11:20.096Z,260
2018-07-19T13:12:30.178Z,265
2018-07-19T13:13:40.007Z,260
2018-07-19T13:14:50.093Z,265
2018-07-19T13:15:59.925Z,265
2018-07-19T13:17:10.004Z,270
2018-07-19T13:18:20.110Z,280
2018-07-19T13:19:30.214Z,280
2018-07-19T13:20:40.044Z,285
2018-07-19T13:21:50.283Z,275
2018-07-19T13:23:00.128Z,280
2018-07-19T13:24:10.433Z,280
2018-07-19T13:25:20.567Z,280
2018-07-19T13:26:30.394Z,280
2018-07-19T13:27:40.481Z,270
2018-07-19T13:28:50.588Z,260
2018-07-19T13:30:00.415Z,255
2018-07-19T13:31:10.069Z,255
2018-07-19T13:32:19.955Z,265
2018-07-19T13:33:30.145Z,275
2018-07-19T13:34:39.969Z,285
2018-07-19T13:35:50.055Z,285
2018-07-19T13:37:00.570Z,290
2018-07-19T13:38:10.954Z,280
2018-07-19T13:39:21.056Z,280
2018-07-19T13:40:31.144Z,275
2018-07-19T13:41:41.462Z,265
2018-07-19T13:42:51.685Z,260
2018-07-19T13:44:01.796Z,255
2018-07-19T13:45:11.990Z,255
2018-07-19T13:46:22.133Z,250
2018-07-19T13:47:32.268Z,240
2018-07-19T13:48:42.403Z,245
2018-07-19T13:49:52.577Z,240
2018-07-19T13:51:02.823Z,250
2018-07-19T13:52:12.987Z,205
2018-07-19T13:53:23.097Z,175
2018-07-19T13:54:32.662Z,175
2018-07-19T13:55:42.820Z,255
2018-07-19T13:56:52.632Z,195
2018-07-19T13:58:02.738Z,250
2018-07-19T13:59:12.846Z,245
2018-07-19T14:00:22.950Z,245
2018-07-19T14:01:33.097Z,240
2018-07-19T14:02:43.277Z,230
2018-07-19T14:03:53.137Z,180
2018-07-19T14:05:03.274Z,220
2018-07-19T14:06:13.369Z,235
2018-07-19T14:07:23.510Z,235
2018-07-19T14:08:33.357Z,245
2018-07-19T14:09:43.465Z,240
2018-07-19T14:10:53.388Z,240
2018-07-19T14:12:03.506Z,250
2018-07-19T14:13:13.810Z,250
2018-07-19T14:14:24.021Z,245
2018-07-19T14:15:34.101Z,240
2018-07-19T14:16:44.252Z,230
2018-07-19T14:17:54.101Z,230
2018-07-19T14:19:04.420Z,230
2018-07-19T14:20:14.253Z,230
2018-07-19T14:21:24.105Z,225
2018-07-19T14:22:33.964Z,230
2018-07-19T14:23:43.826Z,225
2018-07-19T14:24:53.935Z,225
2018-07-19T14:26:04.032Z,220
2018-07-19T14:27:13.863Z,220
2018-07-19T14:28:23.695Z,220
2018-07-19T14:29:33.793Z,215
2018-07-19T14:30:43.875Z,220
2018-07-19T14:31:53.714Z,220
2018-07-19T14:33:03.799Z,220
2018-07-19T14:34:13.935Z,220
2018-07-19T14:35:23.781Z,220
2018-07-19T14:36:33.866Z,220
2018-07-19T14:37:43.681Z,220
2018-07-19T14:38:53.761Z,215
2018-07-19T14:40:03.876Z,210
2018-07-19T14:41:13.967Z,210
2018-07-19T14:42:23.788Z,205
2018-07-19T14:43:33.907Z,205
2018-07-19T14:44:44.053Z,205
2018-07-19T14:45:54.198Z,205
2018-07-19T14:47:04.294Z,205
2018-07-19T14:48:14.621Z,205
2018-07-19T14:49:24.436Z,200
2018-07-19T14:50:34.553Z,200
2018-07-19T14:51:44.450Z,200
2018-07-19T14:52:54.546Z,200
2018-07-19T14:54:04.695Z,205
2018-07-19T14:55:14.791Z,210
2018-07-19T14:56:24.876Z,220
2018-07-19T14:57:34.998Z,215
2018-07-19T14:58:45.105Z,215
2018-07-19T14:59:55.204Z,205
2018-07-19T15:01:05.322Z,200
2018-07-19T15:02:15.151Z,190
2018-07-19T15:03:25.293Z,190
2018-07-19T15:04:35.383Z,190
2018-07-19T15:05:45.469Z,190
2018-07-19T15:06:55.713Z,190
2018-07-19T15:08:05.809Z,190
2018-07-19T15:09:15.913Z,190
2018-07-19T15:10:26.061Z,185
2018-07-19T15:11:36.153Z,185
2018-07-19T15:12:46.296Z,185
2018-07-19T15:13:56.402Z,180
2018-07-19T15:15:06.294Z,180
2018-07-19T15:16:16.395Z,180
2018-07-19T15:17:26.245Z,175
2018-07-19T15:18:36.364Z,175
2018-07-19T15:19:46.176Z,175
2018-07-19T15:20:56.011Z,175
2018-07-19T15:22:06.105Z,175
2018-07-19T15:23:16.197Z,180
2018-07-19T15:24:26.340Z,175
2018-07-19T15:25:36.161Z,180
2018-07-19T15:26:46.316Z,180
2018-07-19T15:27:56.139Z,180
2018-07-19T15:29:06.358Z,180
2018-07-19T15:30:16.501Z,180
2018-07-19T15:31:26.609Z,180
2018-07-19T15:32:36.709Z,180
2018-07-19T15:33:46.802Z,175
2018-07-19T15:34:56.884Z,175
2018-07-19T15:36:06.453Z,175
2018-07-19T15:37:16.272Z,170
2018-07-19T15:38:25.886Z,170
2018-07-19T15:39:36.100Z,170
2018-07-19T15:40:46.211Z,165
2018-07-19T15:41:56.046Z,165
2018-07-19T15:43:06.124Z,165
2018-07-19T15:44:16.288Z,165
2018-07-19T15:45:26.144Z,160
2018-07-19T15:46:36.255Z,160
2018-07-19T15:47:46.344Z,160
2018-07-19T15:48:56.160Z,155
2018-07-19T15:50:06.254Z,155
2018-07-19T15:51:16.343Z,150
2018-07-19T15:52:26.423Z,150
2018-07-19T15:53:36.770Z,150
2018-07-19T15:54:46.868Z,150
2018-07-19T15:55:57.172Z,150
2018-07-19T15:57:07.355Z,150
2018-07-19T15:58:17.446Z,150
2018-07-19T15:59:27.551Z,150
2018-07-19T16:00:37.673Z,150
2018-07-19T16:01:47.940Z,150
2018-07-19T16:02:58.026Z,145
2018-07-19T16:04:08.106Z,145
2018-07-19T16:05:18.433Z,145
2018-07-19T16:06:28.516Z,145
2018-07-19T16:07:38.604Z,140
2018-07-19T16:08:48.699Z,140
2018-07-19T16:09:58.781Z,140
2018-07-19T16:11:08.884Z,135
2018-07-19T16:12:19.031Z,135
2018-07-19T16:13:29.130Z,135
2018-07-19T16:14:39.326Z,135
2018-07-19T16:15:49.409Z,135
2018-07-19T16:16:59.505Z,135
2018-07-19T16:18:09.600Z,135
2018-07-19T16:19:19.714Z,135
2018-07-19T16:20:29.886Z,130
2018-07-19T16:21:39.992Z,125
2018-07-19T16:22:50.081Z,125
2018-07-19T16:24:00.198Z,125
2018-07-19T16:25:10.282Z,130
2018-07-19T16:26:20.367Z,125
2018-07-19T16:27:30.454Z,125
2018-07-19T16:28:40.783Z,125
2018-07-19T16:29:50.858Z,125
2018-07-19T16:31:00.694Z,120
2018-07-19T16:32:10.566Z,120
2018-07-19T16:33:20.646Z,120
2018-07-19T16:34:30.475Z,120
2018-07-19T16:35:40.302Z,120
2018-07-19T16:36:50.432Z,120
2018-07-19T16:38:00.265Z,120
2018-07-19T16:39:10.360Z,120
2018-07-19T16:40:20.449Z,115
2018-07-19T16:41:30.562Z,115
2018-07-19T16:42:40.661Z,115
2018-07-19T16:43:50.473Z,120
2018-07-19T16:45:00.283Z,115
2018-07-19T16:46:10.366Z,115
2018-07-19T16:47:20.451Z,115
2018-07-19T16:48:30.557Z,110
2018-07-19T16:49:40.649Z,110
2018-07-19T16:50:50.773Z,110
2018-07-19T16:52:01.098Z,110
2018-07-19T16:53:11.239Z,110
2018-07-19T16:54:21.341Z,110
2018-07-19T16:55:31.211Z,110
2018-07-19T16:56:41.327Z,110
2018-07-19T16:57:51.434Z,105
2018-07-19T16:59:01.536Z,105
2018-07-19T17:00:11.649Z,105
2018-07-19T17:01:21.269Z,105
2018-07-19T17:02:31.362Z,100